New Providence, NJ

08:59 AM EDT on April 26, 2015 (GMT -0400)
Murray Hill | | Change Station
CLOSE
Current Station
Personal Weather Stations
Location: Murray Hill, NJ
Elevation: 518 ft
Nearby Weather Stations

Elev 518 ft 40.69 °N, 74.39 °W | Updated 8 minutes ago

Gedeeltelik Bewolk
Gedeeltelik Bewolk
52.6 °F
Feels Like 52.6 °F
N
0.0
Wind Veranderlik Wind from SW
Gusts 0.5 mph

Vandag
High -- | Low -- °F
--% Chance of Precip.
Yesterday
High -- | Low -- °F
Precip. -- in
6:03 AM 7:48 PM
Eerste Kwartier, 55% visible
Druk 29.72 in
Sigbaarheid 15.0 myle
Wolke Few 25000 ft
Dou-punt 29 °F
Humiditeit 49%
Rainfall 0.00 in
Snow Depth Not available.
UV 3 out of 12
Pollen 10.20 out of 12
Air Quality Not available.
Flu Activity Local Activity
METAR KMMU 261245Z 09006KT 15SM FEW250 10/M01 A2972

More Conditions Fewer Conditions

Druk 29.72 in
Sigbaarheid 15.0 myle
Wolke Few 25000 ft
Dou-punt 29 °F
Humiditeit 49%
Rainfall 0.00 in
Snow Depth Not available.
UV 3 out of 12
Pollen 10.20 out of 12
Air Quality Not available.
Flu Activity Local Activity
METAR KMMU 261245Z 09006KT 15SM FEW250 10/M01 A2972

More Conditions Fewer Conditions

The full scope of the disaster following a powerful 7.8-magnitude earthquake in Nepal may not come into view for days, but global charities are already sending emergency aid. Click to see how you can help.

10-Day Weather Forecast

Almanac

Astronomy

Apr. 26, 2015 Rise Set
Ware Tyd
Civil Twilight
Nautical Twilight
Astronomical Twilight
Maan
Length Of Visible Light
Length of Day
Tomorrow will be .
, % of the Moon is Illuminated

Today's Extremes

State Highs State Lows

Community

WunderPhotos

Upload Photos

1,816,978 photos uploaded!

WunderBlogs® & News

Nearby

Air Quality

  Air Quality AQ Index Pollutant
Not available.

Snow Depth

Station Depth Elevation

Earthquake Activity

Stad Distance Mag. Time & Date
Minimum magnitude displayed is 2.5.

Coastal Water Temperatures

Plek Temperatuur

Stations

Nearby Weather Stations

Station Location Temp Wind afkoel Dou-punt Humiditeit Wind Precip. Elev Opdateer Type